sensor_id;sensor_type;location;lat;lon;timestamp;P1;durP1;ratioP1;P2;durP2;ratioP2
41799;SDS011;27468;47.460;19.034;2024-01-27T00:01:59;6.57;;;3.00;;
41799;SDS011;27468;47.460;19.034;2024-01-27T00:04:24;8.07;;;3.22;;
41799;SDS011;27468;47.460;19.034;2024-01-27T00:06:50;5.70;;;3.00;;
41799;SDS011;27468;47.460;19.034;2024-01-27T00:09:15;6.00;;;3.35;;
41799;SDS011;27468;47.460;19.034;2024-01-27T00:11:40;6.20;;;2.47;;
41799;SDS011;27468;47.460;19.034;2024-01-27T00:14:06;4.63;;;2.10;;
41799;SDS011;27468;47.460;19.034;2024-01-27T00:16:31;3.40;;;1.95;;
41799;SDS011;27468;47.460;19.034;2024-01-27T00:18:56;4.22;;;2.20;;
41799;SDS011;27468;47.460;19.034;2024-01-27T00:21:22;4.38;;;2.40;;
41799;SDS011;27468;47.460;19.034;2024-01-27T00:23:47;4.35;;;1.95;;
41799;SDS011;27468;47.460;19.034;2024-01-27T00:26:12;5.33;;;2.70;;
41799;SDS011;27468;47.460;19.034;2024-01-27T00:28:38;3.60;;;2.13;;
41799;SDS011;27468;47.460;19.034;2024-01-27T00:31:03;5.10;;;2.47;;
41799;SDS011;27468;47.460;19.034;2024-01-27T00:33:29;3.75;;;1.92;;
41799;SDS011;27468;47.460;19.034;2024-01-27T00:35:54;3.87;;;1.83;;
41799;SDS011;27468;47.460;19.034;2024-01-27T00:38:20;4.07;;;1.90;;
41799;SDS011;27468;47.460;19.034;2024-01-27T00:40:45;2.47;;;1.53;;
41799;SDS011;27468;47.460;19.034;2024-01-27T00:43:10;3.10;;;1.60;;
41799;SDS011;27468;47.460;19.034;2024-01-27T00:45:36;2.20;;;1.13;;
41799;SDS011;27468;47.460;19.034;2024-01-27T00:48:02;2.47;;;1.20;;
41799;SDS011;27468;47.460;19.034;2024-01-27T00:50:27;2.30;;;1.20;;
41799;SDS011;27468;47.460;19.034;2024-01-27T00:52:52;2.13;;;1.00;;
41799;SDS011;27468;47.460;19.034;2024-01-27T00:55:18;3.42;;;1.30;;
41799;SDS011;27468;47.460;19.034;2024-01-27T00:57:43;1.88;;;1.02;;
41799;SDS011;27468;47.460;19.034;2024-01-27T01:00:09;2.53;;;1.20;;
41799;SDS011;27468;47.460;19.034;2024-01-27T01:02:36;2.03;;;0.90;;
41799;SDS011;27468;47.460;19.034;2024-01-27T01:05:02;2.30;;;1.10;;
41799;SDS011;27468;47.460;19.034;2024-01-27T01:07:29;1.58;;;1.00;;
41799;SDS011;27468;47.460;19.034;2024-01-27T01:09:55;1.90;;;1.10;;
41799;SDS011;27468;47.460;19.034;2024-01-27T01:12:20;2.00;;;1.03;;
41799;SDS011;27468;47.460;19.034;2024-01-27T01:14:45;2.50;;;1.27;;
41799;SDS011;27468;47.460;19.034;2024-01-27T01:17:11;2.40;;;1.03;;
41799;SDS011;27468;47.460;19.034;2024-01-27T01:19:37;2.03;;;1.00;;
41799;SDS011;27468;47.460;19.034;2024-01-27T01:22:03;1.90;;;0.97;;
41799;SDS011;27468;47.460;19.034;2024-01-27T01:24:29;1.88;;;1.30;;
41799;SDS011;27468;47.460;19.034;2024-01-27T01:26:55;1.50;;;0.97;;
41799;SDS011;27468;47.460;19.034;2024-01-27T01:29:20;1.57;;;0.97;;
41799;SDS011;27468;47.460;19.034;2024-01-27T01:31:47;2.83;;;1.00;;
41799;SDS011;27468;47.460;19.034;2024-01-27T01:34:12;2.50;;;1.07;;
41799;SDS011;27468;47.460;19.034;2024-01-27T01:36:37;1.93;;;1.00;;
41799;SDS011;27468;47.460;19.034;2024-01-27T01:39:03;2.33;;;1.13;;
41799;SDS011;27468;47.460;19.034;2024-01-27T01:41:28;2.50;;;1.05;;
41799;SDS011;27468;47.460;19.034;2024-01-27T01:43:54;2.30;;;1.20;;
41799;SDS011;27468;47.460;19.034;2024-01-27T01:46:19;2.60;;;1.13;;
41799;SDS011;27468;47.460;19.034;2024-01-27T01:48:44;1.93;;;1.00;;
41799;SDS011;27468;47.460;19.034;2024-01-27T01:51:10;2.27;;;1.13;;
41799;SDS011;27468;47.460;19.034;2024-01-27T01:53:35;2.10;;;1.00;;
41799;SDS011;27468;47.460;19.034;2024-01-27T01:56:01;1.73;;;0.80;;
41799;SDS011;27468;47.460;19.034;2024-01-27T01:58:27;1.40;;;0.73;;
41799;SDS011;27468;47.460;19.034;2024-01-27T02:00:59;2.33;;;1.15;;
41799;SDS011;27468;47.460;19.034;2024-01-27T02:03:25;2.88;;;1.10;;
41799;SDS011;27468;47.460;19.034;2024-01-27T02:05:50;2.03;;;0.73;;
41799;SDS011;27468;47.460;19.034;2024-01-27T02:08:15;1.73;;;0.80;;
41799;SDS011;27468;47.460;19.034;2024-01-27T02:10:41;2.40;;;0.90;;
41799;SDS011;27468;47.460;19.034;2024-01-27T02:13:19;1.57;;;0.70;;
41799;SDS011;27468;47.460;19.034;2024-01-27T02:15:46;1.13;;;0.60;;
41799;SDS011;27468;47.460;19.034;2024-01-27T02:18:12;0.82;;;0.40;;
41799;SDS011;27468;47.460;19.034;2024-01-27T02:20:37;1.83;;;0.70;;
41799;SDS011;27468;47.460;19.034;2024-01-27T02:23:03;2.03;;;0.90;;
41799;SDS011;27468;47.460;19.034;2024-01-27T02:25:30;1.50;;;0.50;;
41799;SDS011;27468;47.460;19.034;2024-01-27T02:27:56;2.95;;;0.70;;
41799;SDS011;27468;47.460;19.034;2024-01-27T02:30:21;1.57;;;0.63;;
41799;SDS011;27468;47.460;19.034;2024-01-27T02:32:46;2.30;;;0.70;;
41799;SDS011;27468;47.460;19.034;2024-01-27T02:35:11;1.13;;;0.60;;
41799;SDS011;27468;47.460;19.034;2024-01-27T02:37:39;1.83;;;0.50;;
41799;SDS011;27468;47.460;19.034;2024-01-27T02:40:04;2.27;;;0.67;;
41799;SDS011;27468;47.460;19.034;2024-01-27T02:42:31;1.95;;;0.68;;
41799;SDS011;27468;47.460;19.034;2024-01-27T02:44:56;1.80;;;0.50;;
41799;SDS011;27468;47.460;19.034;2024-01-27T02:47:21;1.50;;;0.50;;
41799;SDS011;27468;47.460;19.034;2024-01-27T02:49:46;1.57;;;0.50;;
41799;SDS011;27468;47.460;19.034;2024-01-27T02:52:12;1.97;;;0.60;;
41799;SDS011;27468;47.460;19.034;2024-01-27T02:54:39;1.98;;;0.70;;
41799;SDS011;27468;47.460;19.034;2024-01-27T02:57:04;1.80;;;0.70;;
41799;SDS011;27468;47.460;19.034;2024-01-27T02:59:29;1.23;;;0.50;;
41799;SDS011;27468;47.460;19.034;2024-01-27T03:01:55;1.30;;;0.40;;
41799;SDS011;27468;47.460;19.034;2024-01-27T03:04:20;2.50;;;0.60;;
41799;SDS011;27468;47.460;19.034;2024-01-27T03:06:46;0.93;;;0.60;;
41799;SDS011;27468;47.460;19.034;2024-01-27T03:09:12;1.37;;;0.40;;
41799;SDS011;27468;47.460;19.034;2024-01-27T03:11:37;1.40;;;0.60;;
41799;SDS011;27468;47.460;19.034;2024-01-27T03:14:02;1.90;;;0.60;;
41799;SDS011;27468;47.460;19.034;2024-01-27T03:16:28;1.50;;;0.60;;
41799;SDS011;27468;47.460;19.034;2024-01-27T03:18:53;2.63;;;0.50;;
41799;SDS011;27468;47.460;19.034;2024-01-27T03:21:19;1.38;;;0.50;;
41799;SDS011;27468;47.460;19.034;2024-01-27T03:23:44;2.40;;;0.50;;
41799;SDS011;27468;47.460;19.034;2024-01-27T03:26:09;1.03;;;0.50;;
41799;SDS011;27468;47.460;19.034;2024-01-27T03:28:35;1.97;;;0.50;;
41799;SDS011;27468;47.460;19.034;2024-01-27T03:31:00;0.57;;;0.33;;
41799;SDS011;27468;47.460;19.034;2024-01-27T03:33:26;3.50;;;0.60;;
41799;SDS011;27468;47.460;19.034;2024-01-27T03:35:54;1.55;;;0.60;;
41799;SDS011;27468;47.460;19.034;2024-01-27T03:38:19;2.00;;;0.50;;
41799;SDS011;27468;47.460;19.034;2024-01-27T03:40:44;2.03;;;0.70;;
41799;SDS011;27468;47.460;19.034;2024-01-27T03:43:10;1.53;;;0.40;;
41799;SDS011;27468;47.460;19.034;2024-01-27T03:45:35;1.30;;;0.50;;
41799;SDS011;27468;47.460;19.034;2024-01-27T03:48:00;1.40;;;0.47;;
41799;SDS011;27468;47.460;19.034;2024-01-27T03:50:25;1.67;;;0.60;;
41799;SDS011;27468;47.460;19.034;2024-01-27T03:52:51;1.67;;;0.80;;
41799;SDS011;27468;47.460;19.034;2024-01-27T03:55:16;1.27;;;0.80;;
41799;SDS011;27468;47.460;19.034;2024-01-27T03:57:41;1.60;;;0.60;;
41799;SDS011;27468;47.460;19.034;2024-01-27T04:00:07;1.60;;;0.70;;
41799;SDS011;27468;47.460;19.034;2024-01-27T04:02:32;1.38;;;0.68;;
41799;SDS011;27468;47.460;19.034;2024-01-27T04:04:58;1.95;;;0.68;;
41799;SDS011;27468;47.460;19.034;2024-01-27T04:07:24;1.98;;;0.80;;
41799;SDS011;27468;47.460;19.034;2024-01-27T04:09:49;2.22;;;0.60;;
41799;SDS011;27468;47.460;19.034;2024-01-27T04:12:14;1.80;;;0.73;;
41799;SDS011;27468;47.460;19.034;2024-01-27T04:14:40;2.33;;;1.10;;
41799;SDS011;27468;47.460;19.034;2024-01-27T04:17:05;2.30;;;0.70;;
41799;SDS011;27468;47.460;19.034;2024-01-27T04:19:31;1.90;;;0.70;;
41799;SDS011;27468;47.460;19.034;2024-01-27T04:21:56;1.87;;;0.70;;
41799;SDS011;27468;47.460;19.034;2024-01-27T04:24:21;1.40;;;0.60;;
41799;SDS011;27468;47.460;19.034;2024-01-27T04:26:47;1.47;;;0.70;;
41799;SDS011;27468;47.460;19.034;2024-01-27T04:29:13;0.95;;;0.70;;
41799;SDS011;27468;47.460;19.034;2024-01-27T04:31:40;1.73;;;1.02;;
41799;SDS011;27468;47.460;19.034;2024-01-27T04:34:06;1.60;;;0.82;;
41799;SDS011;27468;47.460;19.034;2024-01-27T04:36:31;0.97;;;0.60;;
41799;SDS011;27468;47.460;19.034;2024-01-27T04:38:56;1.63;;;0.90;;
41799;SDS011;27468;47.460;19.034;2024-01-27T04:41:22;1.70;;;0.80;;
41799;SDS011;27468;47.460;19.034;2024-01-27T04:43:47;2.07;;;0.80;;
41799;SDS011;27468;47.460;19.034;2024-01-27T04:46:13;2.08;;;0.90;;
41799;SDS011;27468;47.460;19.034;2024-01-27T04:48:38;2.03;;;0.70;;
41799;SDS011;27468;47.460;19.034;2024-01-27T04:51:03;2.73;;;0.90;;
41799;SDS011;27468;47.460;19.034;2024-01-27T04:53:29;2.33;;;0.80;;
41799;SDS011;27468;47.460;19.034;2024-01-27T04:55:54;1.77;;;0.80;;
41799;SDS011;27468;47.460;19.034;2024-01-27T04:58:19;2.50;;;0.77;;
41799;SDS011;27468;47.460;19.034;2024-01-27T05:00:45;2.77;;;0.70;;
41799;SDS011;27468;47.460;19.034;2024-01-27T05:03:10;1.83;;;0.70;;
41799;SDS011;27468;47.460;19.034;2024-01-27T05:05:41;2.95;;;0.80;;
41799;SDS011;27468;47.460;19.034;2024-01-27T05:08:07;2.80;;;0.70;;
41799;SDS011;27468;47.460;19.034;2024-01-27T05:10:34;2.78;;;0.95;;
41799;SDS011;27468;47.460;19.034;2024-01-27T05:12:59;3.83;;;0.90;;
41799;SDS011;27468;47.460;19.034;2024-01-27T05:15:24;4.13;;;1.10;;
41799;SDS011;27468;47.460;19.034;2024-01-27T05:17:50;2.70;;;0.80;;
41799;SDS011;27468;47.460;19.034;2024-01-27T05:20:15;2.13;;;0.70;;
41799;SDS011;27468;47.460;19.034;2024-01-27T05:22:41;3.90;;;0.70;;
41799;SDS011;27468;47.460;19.034;2024-01-27T05:25:06;1.73;;;0.70;;
41799;SDS011;27468;47.460;19.034;2024-01-27T05:27:32;3.38;;;0.90;;
41799;SDS011;27468;47.460;19.034;2024-01-27T05:29:58;3.80;;;0.70;;
41799;SDS011;27468;47.460;19.034;2024-01-27T05:32:23;4.30;;;0.90;;
41799;SDS011;27468;47.460;19.034;2024-01-27T05:34:48;4.33;;;0.90;;
41799;SDS011;27468;47.460;19.034;2024-01-27T05:37:14;3.60;;;1.00;;
41799;SDS011;27468;47.460;19.034;2024-01-27T05:39:39;3.65;;;0.95;;
41799;SDS011;27468;47.460;19.034;2024-01-27T05:42:04;2.78;;;0.95;;
41799;SDS011;27468;47.460;19.034;2024-01-27T05:44:30;3.77;;;1.00;;
41799;SDS011;27468;47.460;19.034;2024-01-27T05:46:55;2.03;;;0.60;;
41799;SDS011;27468;47.460;19.034;2024-01-27T05:49:21;3.35;;;0.80;;
41799;SDS011;27468;47.460;19.034;2024-01-27T05:51:46;4.20;;;1.00;;
41799;SDS011;27468;47.460;19.034;2024-01-27T05:54:12;3.63;;;1.00;;
41799;SDS011;27468;47.460;19.034;2024-01-27T05:56:39;2.97;;;0.70;;
41799;SDS011;27468;47.460;19.034;2024-01-27T05:59:05;3.67;;;0.80;;
41799;SDS011;27468;47.460;19.034;2024-01-27T06:01:31;4.53;;;0.70;;
41799;SDS011;27468;47.460;19.034;2024-01-27T06:03:56;2.25;;;0.60;;
41799;SDS011;27468;47.460;19.034;2024-01-27T06:06:22;2.90;;;0.70;;
41799;SDS011;27468;47.460;19.034;2024-01-27T06:08:47;4.77;;;0.80;;
41799;SDS011;27468;47.460;19.034;2024-01-27T06:11:12;3.20;;;1.13;;
41799;SDS011;27468;47.460;19.034;2024-01-27T06:13:38;5.00;;;0.87;;
41799;SDS011;27468;47.460;19.034;2024-01-27T06:16:08;2.35;;;0.77;;
41799;SDS011;27468;47.460;19.034;2024-01-27T06:18:36;4.78;;;0.80;;
41799;SDS011;27468;47.460;19.034;2024-01-27T06:21:02;4.15;;;0.90;;
41799;SDS011;27468;47.460;19.034;2024-01-27T06:23:28;4.38;;;0.93;;
41799;SDS011;27468;47.460;19.034;2024-01-27T06:25:53;3.50;;;1.03;;
41799;SDS011;27468;47.460;19.034;2024-01-27T06:28:18;3.20;;;1.00;;
41799;SDS011;27468;47.460;19.034;2024-01-27T06:30:44;4.60;;;0.93;;
41799;SDS011;27468;47.460;19.034;2024-01-27T06:33:09;3.03;;;1.00;;
41799;SDS011;27468;47.460;19.034;2024-01-27T06:35:35;3.20;;;1.10;;
41799;SDS011;27468;47.460;19.034;2024-01-27T06:38:00;4.07;;;0.90;;
41799;SDS011;27468;47.460;19.034;2024-01-27T06:40:25;3.58;;;1.10;;
41799;SDS011;27468;47.460;19.034;2024-01-27T06:42:51;3.73;;;1.00;;
41799;SDS011;27468;47.460;19.034;2024-01-27T06:45:16;3.07;;;0.87;;
41799;SDS011;27468;47.460;19.034;2024-01-27T06:47:41;3.13;;;0.90;;
41799;SDS011;27468;47.460;19.034;2024-01-27T06:50:07;3.87;;;1.07;;
41799;SDS011;27468;47.460;19.034;2024-01-27T06:52:32;3.30;;;0.80;;
41799;SDS011;27468;47.460;19.034;2024-01-27T06:54:57;3.47;;;1.10;;
41799;SDS011;27468;47.460;19.034;2024-01-27T06:57:23;4.13;;;0.98;;
41799;SDS011;27468;47.460;19.034;2024-01-27T06:59:50;4.20;;;1.08;;
41799;SDS011;27468;47.460;19.034;2024-01-27T07:02:27;3.33;;;0.82;;
41799;SDS011;27468;47.460;19.034;2024-01-27T07:04:53;2.37;;;0.77;;
41799;SDS011;27468;47.460;19.034;2024-01-27T07:07:27;4.15;;;1.02;;
41799;SDS011;27468;47.460;19.034;2024-01-27T07:09:54;2.83;;;0.90;;
41799;SDS011;27468;47.460;19.034;2024-01-27T07:12:20;2.67;;;0.70;;
41799;SDS011;27468;47.460;19.034;2024-01-27T07:14:46;3.05;;;0.90;;
41799;SDS011;27468;47.460;19.034;2024-01-27T07:17:11;2.07;;;0.60;;
41799;SDS011;27468;47.460;19.034;2024-01-27T07:19:36;3.97;;;1.10;;
41799;SDS011;27468;47.460;19.034;2024-01-27T07:22:02;4.30;;;0.87;;
41799;SDS011;27468;47.460;19.034;2024-01-27T07:24:28;5.13;;;1.13;;
41799;SDS011;27468;47.460;19.034;2024-01-27T07:26:54;3.63;;;1.10;;
41799;SDS011;27468;47.460;19.034;2024-01-27T07:29:19;2.43;;;0.80;;
41799;SDS011;27468;47.460;19.034;2024-01-27T07:31:46;2.47;;;0.80;;
41799;SDS011;27468;47.460;19.034;2024-01-27T07:34:11;4.17;;;1.00;;
41799;SDS011;27468;47.460;19.034;2024-01-27T07:36:36;3.08;;;0.90;;
41799;SDS011;27468;47.460;19.034;2024-01-27T07:39:02;3.60;;;0.97;;
41799;SDS011;27468;47.460;19.034;2024-01-27T07:41:29;2.85;;;0.70;;
41799;SDS011;27468;47.460;19.034;2024-01-27T07:43:55;2.67;;;1.00;;
41799;SDS011;27468;47.460;19.034;2024-01-27T07:46:21;4.43;;;0.93;;
41799;SDS011;27468;47.460;19.034;2024-01-27T07:48:47;2.85;;;0.80;;
41799;SDS011;27468;47.460;19.034;2024-01-27T07:51:14;3.15;;;0.80;;
41799;SDS011;27468;47.460;19.034;2024-01-27T07:53:40;2.30;;;0.80;;
41799;SDS011;27468;47.460;19.034;2024-01-27T07:56:05;2.77;;;1.13;;
41799;SDS011;27468;47.460;19.034;2024-01-27T07:58:32;3.30;;;1.00;;
41799;SDS011;27468;47.460;19.034;2024-01-27T08:00:57;3.40;;;0.80;;
41799;SDS011;27468;47.460;19.034;2024-01-27T08:03:22;3.40;;;1.10;;
41799;SDS011;27468;47.460;19.034;2024-01-27T08:05:48;3.57;;;0.90;;
41799;SDS011;27468;47.460;19.034;2024-01-27T08:08:13;2.90;;;0.90;;
41799;SDS011;27468;47.460;19.034;2024-01-27T08:10:38;3.23;;;0.90;;
41799;SDS011;27468;47.460;19.034;2024-01-27T08:13:05;3.10;;;1.00;;
41799;SDS011;27468;47.460;19.034;2024-01-27T08:15:30;2.80;;;1.00;;
41799;SDS011;27468;47.460;19.034;2024-01-27T08:17:57;2.85;;;0.88;;
41799;SDS011;27468;47.460;19.034;2024-01-27T08:20:22;2.53;;;0.70;;
41799;SDS011;27468;47.460;19.034;2024-01-27T08:22:48;2.47;;;0.90;;
41799;SDS011;27468;47.460;19.034;2024-01-27T08:25:16;2.05;;;0.80;;
41799;SDS011;27468;47.460;19.034;2024-01-27T08:27:41;2.87;;;0.77;;
41799;SDS011;27468;47.460;19.034;2024-01-27T08:30:07;3.63;;;0.90;;
41799;SDS011;27468;47.460;19.034;2024-01-27T08:32:33;2.73;;;0.97;;
41799;SDS011;27468;47.460;19.034;2024-01-27T08:34:59;3.35;;;1.02;;
41799;SDS011;27468;47.460;19.034;2024-01-27T08:37:25;2.85;;;0.80;;
41799;SDS011;27468;47.460;19.034;2024-01-27T08:39:50;2.05;;;0.80;;
41799;SDS011;27468;47.460;19.034;2024-01-27T08:42:16;2.93;;;0.70;;
41799;SDS011;27468;47.460;19.034;2024-01-27T08:44:42;2.78;;;0.73;;
41799;SDS011;27468;47.460;19.034;2024-01-27T08:47:07;3.05;;;0.80;;
41799;SDS011;27468;47.460;19.034;2024-01-27T08:49:33;2.28;;;0.80;;
41799;SDS011;27468;47.460;19.034;2024-01-27T08:51:59;1.90;;;0.90;;
41799;SDS011;27468;47.460;19.034;2024-01-27T08:54:24;2.10;;;0.70;;
41799;SDS011;27468;47.460;19.034;2024-01-27T08:56:49;2.73;;;0.70;;
41799;SDS011;27468;47.460;19.034;2024-01-27T08:59:15;3.00;;;0.87;;
41799;SDS011;27468;47.460;19.034;2024-01-27T09:01:40;3.83;;;0.73;;
41799;SDS011;27468;47.460;19.034;2024-01-27T09:04:07;3.35;;;0.85;;
41799;SDS011;27468;47.460;19.034;2024-01-27T09:06:32;2.38;;;1.02;;
41799;SDS011;27468;47.460;19.034;2024-01-27T09:08:57;2.40;;;0.83;;
41799;SDS011;27468;47.460;19.034;2024-01-27T09:11:23;3.87;;;1.03;;
41799;SDS011;27468;47.460;19.034;2024-01-27T09:13:49;3.20;;;1.00;;
41799;SDS011;27468;47.460;19.034;2024-01-27T09:16:17;2.92;;;0.80;;
41799;SDS011;27468;47.460;19.034;2024-01-27T09:18:42;4.85;;;0.90;;
41799;SDS011;27468;47.460;19.034;2024-01-27T09:21:08;2.42;;;0.80;;
41799;SDS011;27468;47.460;19.034;2024-01-27T09:23:34;4.30;;;1.03;;
41799;SDS011;27468;47.460;19.034;2024-01-27T09:25:59;3.10;;;0.95;;
41799;SDS011;27468;47.460;19.034;2024-01-27T09:28:25;2.43;;;0.80;;
41799;SDS011;27468;47.460;19.034;2024-01-27T09:30:50;2.07;;;0.80;;
41799;SDS011;27468;47.460;19.034;2024-01-27T09:33:16;2.70;;;0.80;;
41799;SDS011;27468;47.460;19.034;2024-01-27T09:35:44;3.63;;;0.90;;
41799;SDS011;27468;47.460;19.034;2024-01-27T09:38:10;3.60;;;1.00;;
41799;SDS011;27468;47.460;19.034;2024-01-27T09:40:37;3.08;;;0.90;;
41799;SDS011;27468;47.460;19.034;2024-01-27T09:43:04;4.80;;;1.20;;
41799;SDS011;27468;47.460;19.034;2024-01-27T09:45:30;2.70;;;0.77;;
41799;SDS011;27468;47.460;19.034;2024-01-27T09:47:58;2.93;;;1.00;;
41799;SDS011;27468;47.460;19.034;2024-01-27T09:50:26;2.65;;;0.90;;
41799;SDS011;27468;47.460;19.034;2024-01-27T09:52:52;3.30;;;0.90;;
41799;SDS011;27468;47.460;19.034;2024-01-27T09:55:17;2.92;;;1.00;;
41799;SDS011;27468;47.460;19.034;2024-01-27T09:57:42;2.97;;;0.97;;
41799;SDS011;27468;47.460;19.034;2024-01-27T10:00:09;3.63;;;0.90;;
41799;SDS011;27468;47.460;19.034;2024-01-27T10:02:37;3.67;;;0.90;;
41799;SDS011;27468;47.460;19.034;2024-01-27T10:05:05;3.53;;;1.20;;
41799;SDS011;27468;47.460;19.034;2024-01-27T10:07:32;2.92;;;0.80;;
41799;SDS011;27468;47.460;19.034;2024-01-27T10:09:57;3.73;;;1.00;;
41799;SDS011;27468;47.460;19.034;2024-01-27T10:12:22;3.63;;;0.80;;
41799;SDS011;27468;47.460;19.034;2024-01-27T10:14:50;2.90;;;1.05;;
41799;SDS011;27468;47.460;19.034;2024-01-27T10:17:20;3.10;;;1.00;;
41799;SDS011;27468;47.460;19.034;2024-01-27T10:20:04;3.78;;;0.90;;
41799;SDS011;27468;47.460;19.034;2024-01-27T10:22:40;5.55;;;1.38;;
41799;SDS011;27468;47.460;19.034;2024-01-27T10:25:06;2.92;;;0.90;;
41799;SDS011;27468;47.460;19.034;2024-01-27T10:27:32;2.95;;;0.80;;
41799;SDS011;27468;47.460;19.034;2024-01-27T10:29:58;4.27;;;0.90;;
41799;SDS011;27468;47.460;19.034;2024-01-27T10:32:23;4.97;;;0.93;;
41799;SDS011;27468;47.460;19.034;2024-01-27T10:34:49;3.97;;;1.20;;
41799;SDS011;27468;47.460;19.034;2024-01-27T10:37:25;4.60;;;1.17;;
41799;SDS011;27468;47.460;19.034;2024-01-27T10:39:58;3.03;;;0.90;;
41799;SDS011;27468;47.460;19.034;2024-01-27T10:42:28;3.67;;;1.30;;
41799;SDS011;27468;47.460;19.034;2024-01-27T10:45:00;4.03;;;0.90;;
41799;SDS011;27468;47.460;19.034;2024-01-27T10:47:29;2.78;;;1.05;;
41799;SDS011;27468;47.460;19.034;2024-01-27T10:49:57;3.75;;;0.88;;
41799;SDS011;27468;47.460;19.034;2024-01-27T10:52:24;4.45;;;1.30;;
41799;SDS011;27468;47.460;19.034;2024-01-27T10:55:02;2.35;;;0.95;;
41799;SDS011;27468;47.460;19.034;2024-01-27T10:57:32;4.05;;;0.90;;
41799;SDS011;27468;47.460;19.034;2024-01-27T10:59:58;3.72;;;1.20;;
41799;SDS011;27468;47.460;19.034;2024-01-27T11:02:31;3.92;;;1.02;;
41799;SDS011;27468;47.460;19.034;2024-01-27T11:05:01;3.10;;;1.13;;
41799;SDS011;27468;47.460;19.034;2024-01-27T11:07:28;4.25;;;1.10;;
41799;SDS011;27468;47.460;19.034;2024-01-27T11:09:57;4.25;;;1.17;;
41799;SDS011;27468;47.460;19.034;2024-01-27T11:12:22;4.30;;;1.20;;
41799;SDS011;27468;47.460;19.034;2024-01-27T11:14:49;3.40;;;0.80;;
41799;SDS011;27468;47.460;19.034;2024-01-27T11:17:16;3.63;;;1.10;;
41799;SDS011;27468;47.460;19.034;2024-01-27T11:19:42;4.10;;;1.13;;
41799;SDS011;27468;47.460;19.034;2024-01-27T11:22:07;4.18;;;1.10;;
41799;SDS011;27468;47.460;19.034;2024-01-27T11:24:33;4.17;;;0.90;;
41799;SDS011;27468;47.460;19.034;2024-01-27T11:27:04;4.37;;;1.03;;
41799;SDS011;27468;47.460;19.034;2024-01-27T11:29:31;4.90;;;1.20;;
41799;SDS011;27468;47.460;19.034;2024-01-27T11:32:01;4.75;;;1.20;;
41799;SDS011;27468;47.460;19.034;2024-01-27T11:34:27;4.28;;;0.90;;
41799;SDS011;27468;47.460;19.034;2024-01-27T11:36:53;3.03;;;0.90;;
41799;SDS011;27468;47.460;19.034;2024-01-27T11:39:25;5.25;;;1.10;;
41799;SDS011;27468;47.460;19.034;2024-01-27T11:42:06;3.33;;;1.23;;
41799;SDS011;27468;47.460;19.034;2024-01-27T11:44:36;5.22;;;1.08;;
41799;SDS011;27468;47.460;19.034;2024-01-27T11:47:02;3.42;;;0.85;;
41799;SDS011;27468;47.460;19.034;2024-01-27T11:49:28;3.40;;;0.80;;
41799;SDS011;27468;47.460;19.034;2024-01-27T11:51:54;4.60;;;0.90;;
41799;SDS011;27468;47.460;19.034;2024-01-27T11:54:20;3.73;;;1.10;;
41799;SDS011;27468;47.460;19.034;2024-01-27T11:56:45;3.20;;;0.90;;
41799;SDS011;27468;47.460;19.034;2024-01-27T11:59:11;6.03;;;1.15;;
41799;SDS011;27468;47.460;19.034;2024-01-27T12:01:36;4.17;;;1.00;;
41799;SDS011;27468;47.460;19.034;2024-01-27T12:04:03;4.65;;;1.10;;
41799;SDS011;27468;47.460;19.034;2024-01-27T12:06:29;3.35;;;0.95;;
41799;SDS011;27468;47.460;19.034;2024-01-27T12:08:55;4.40;;;1.05;;
41799;SDS011;27468;47.460;19.034;2024-01-27T12:11:22;4.60;;;1.52;;
41799;SDS011;27468;47.460;19.034;2024-01-27T12:13:51;3.95;;;1.17;;
41799;SDS011;27468;47.460;19.034;2024-01-27T12:16:18;5.40;;;1.40;;
41799;SDS011;27468;47.460;19.034;2024-01-27T12:18:44;3.63;;;1.08;;
41799;SDS011;27468;47.460;19.034;2024-01-27T12:21:11;4.00;;;1.02;;
41799;SDS011;27468;47.460;19.034;2024-01-27T12:23:53;4.22;;;1.20;;
41799;SDS011;27468;47.460;19.034;2024-01-27T12:26:23;5.05;;;1.00;;
41799;SDS011;27468;47.460;19.034;2024-01-27T12:28:50;3.63;;;1.00;;
41799;SDS011;27468;47.460;19.034;2024-01-27T12:31:16;3.10;;;1.00;;
41799;SDS011;27468;47.460;19.034;2024-01-27T12:33:51;4.63;;;1.20;;
41799;SDS011;27468;47.460;19.034;2024-01-27T12:36:18;4.47;;;1.17;;
41799;SDS011;27468;47.460;19.034;2024-01-27T12:38:54;4.05;;;1.20;;
41799;SDS011;27468;47.460;19.034;2024-01-27T12:41:20;4.22;;;0.90;;
41799;SDS011;27468;47.460;19.034;2024-01-27T12:43:45;3.13;;;1.00;;
41799;SDS011;27468;47.460;19.034;2024-01-27T12:46:11;4.50;;;0.90;;
41799;SDS011;27468;47.460;19.034;2024-01-27T12:48:37;5.13;;;1.30;;
41799;SDS011;27468;47.460;19.034;2024-01-27T12:51:03;5.18;;;1.20;;
41799;SDS011;27468;47.460;19.034;2024-01-27T12:53:29;3.88;;;0.80;;
41799;SDS011;27468;47.460;19.034;2024-01-27T12:55:54;2.53;;;1.10;;
41799;SDS011;27468;47.460;19.034;2024-01-27T12:58:20;5.80;;;1.35;;
41799;SDS011;27468;47.460;19.034;2024-01-27T13:00:46;3.27;;;1.00;;
41799;SDS011;27468;47.460;19.034;2024-01-27T13:03:11;3.77;;;1.07;;
41799;SDS011;27468;47.460;19.034;2024-01-27T13:05:37;4.27;;;1.20;;
41799;SDS011;27468;47.460;19.034;2024-01-27T13:08:03;3.85;;;1.10;;
41799;SDS011;27468;47.460;19.034;2024-01-27T13:10:29;3.65;;;0.90;;
41799;SDS011;27468;47.460;19.034;2024-01-27T13:12:55;5.17;;;1.23;;
41799;SDS011;27468;47.460;19.034;2024-01-27T13:15:20;4.40;;;1.20;;
41799;SDS011;27468;47.460;19.034;2024-01-27T13:17:47;4.45;;;0.93;;
41799;SDS011;27468;47.460;19.034;2024-01-27T13:20:12;5.35;;;1.40;;
41799;SDS011;27468;47.460;19.034;2024-01-27T13:22:38;3.65;;;1.25;;
41799;SDS011;27468;47.460;19.034;2024-01-27T13:25:03;3.80;;;1.07;;
41799;SDS011;27468;47.460;19.034;2024-01-27T13:27:30;4.43;;;1.17;;
41799;SDS011;27468;47.460;19.034;2024-01-27T13:29:56;4.47;;;1.23;;
41799;SDS011;27468;47.460;19.034;2024-01-27T13:32:21;4.10;;;0.97;;
41799;SDS011;27468;47.460;19.034;2024-01-27T13:34:47;5.33;;;1.10;;
41799;SDS011;27468;47.460;19.034;2024-01-27T13:37:12;4.93;;;1.40;;
41799;SDS011;27468;47.460;19.034;2024-01-27T13:39:40;4.78;;;1.20;;
41799;SDS011;27468;47.460;19.034;2024-01-27T13:42:06;5.40;;;1.20;;
41799;SDS011;27468;47.460;19.034;2024-01-27T13:44:31;4.47;;;1.10;;
41799;SDS011;27468;47.460;19.034;2024-01-27T13:47:00;3.88;;;1.00;;
41799;SDS011;27468;47.460;19.034;2024-01-27T13:49:27;5.05;;;1.35;;
41799;SDS011;27468;47.460;19.034;2024-01-27T13:51:52;4.30;;;1.20;;
41799;SDS011;27468;47.460;19.034;2024-01-27T13:54:17;4.27;;;1.00;;
41799;SDS011;27468;47.460;19.034;2024-01-27T13:56:43;5.80;;;1.40;;
41799;SDS011;27468;47.460;19.034;2024-01-27T13:59:08;4.93;;;1.13;;
41799;SDS011;27468;47.460;19.034;2024-01-27T14:01:34;3.70;;;1.10;;
41799;SDS011;27468;47.460;19.034;2024-01-27T14:03:59;5.13;;;0.98;;
41799;SDS011;27468;47.460;19.034;2024-01-27T14:06:25;4.70;;;1.20;;
41799;SDS011;27468;47.460;19.034;2024-01-27T14:08:50;3.37;;;1.27;;
41799;SDS011;27468;47.460;19.034;2024-01-27T14:11:15;4.97;;;1.40;;
41799;SDS011;27468;47.460;19.034;2024-01-27T14:13:41;5.20;;;1.43;;
41799;SDS011;27468;47.460;19.034;2024-01-27T14:16:08;5.35;;;1.50;;
41799;SDS011;27468;47.460;19.034;2024-01-27T14:18:33;4.43;;;1.40;;
41799;SDS011;27468;47.460;19.034;2024-01-27T14:20:59;5.73;;;1.90;;
41799;SDS011;27468;47.460;19.034;2024-01-27T14:23:24;4.30;;;1.33;;
41799;SDS011;27468;47.460;19.034;2024-01-27T14:25:49;4.83;;;1.40;;
41799;SDS011;27468;47.460;19.034;2024-01-27T14:28:15;5.50;;;1.30;;